De Queen, AR

8:03 AM CDT on September 20, 2014 (GMT -0500)
Helms Sevier County | Change Station
CLOSE
Current Station
Airport
Location: De Queen,
Elevation: 354 ft
Nearby Weather Stations

Elev 354 ft 34.05 °N, 94.40 °W | Updated 10 minutes ago

Fog
Fog
66 °F
Feels Like 66 °F
N
0
Wind Variable Wind from North

Today
High -- | Low -- °F
--% Chance of Precip.
Yesterday
High -- | Low -- °F
Precip. -- in
7:04 AM 7:16 PM
Waning Crescent, 12% visible
Pressure 30.00 in
Visibility 0.2 miles
Clouds
Dew Point 66 °F
Humidity 100%
Rainfall 0.00 in
Snow Depth Not available.
UV Not available.
Pollen 10.10 out of 12
Air Quality Not available.
Flu Activity Not available.
METAR KDEQ 201253Z AUTO 00000KT 1/4SM FG VV002 19/19 A3002 RMK AO2 SLP159 T01890189

More Conditions Fewer Conditions

Pressure 30.00 in
Visibility 0.2 miles
Clouds
Dew Point 66 °F
Humidity 100%
Rainfall 0.00 in
Snow Depth Not available.
UV Not available.
Pollen 10.10 out of 12
Air Quality Not available.
Flu Activity Not available.
METAR KDEQ 201253Z AUTO 00000KT 1/4SM FG VV002 19/19 A3002 RMK AO2 SLP159 T01890189

More Conditions Fewer Conditions

Nowcast | as of 6:45 am CDT on September 20, 2014

Patchy dense fog has developed this morning across portions of northeast Texas...southeast Oklahoma...and southwest Arkansas... reducing visibilities to near one quarter mile at times. Motorists traveling this morning should use low beam headlights...slow down...and allow extra time to reach your destination. Look for the fog to lift around mid morning.

×

10-Day Weather Forecast

Almanac

Astronomy

Sep. 20, 2014 Rise Set
Actual Time 7:04 AM CDT 7:16 PM CDT
Civil Twilight 6:39 AM CDT 7:41 PM CDT
Nautical Twilight 6:09 AM CDT 8:11 PM CDT
Astronomical Twilight 5:40 AM CDT 8:40 PM CDT
Moon 3:51 AM CDT 5:14 PM CDT
Length of Visible Light 13h 02m
Length of Day
12h 12m
Tomorrow will be 2m 7s shorter.
Waning Crescent, 12% of the Moon is Illuminated
Today
Waning Crescent
Sep 24
New
Oct 1
First Quarter
Oct 8
Full
Oct 15
Last Quarter

Today's Extremes

State Highs State Lows

Community

WunderPhotos

Upload Photos

1,754,847 photos uploaded!

Nearby

Snow Depth

Station Depth Elevation
No new snow has been reported.

Earthquake Activity

City Distance Mag. Time & Date
No recent earthquake activity has been reported nearby.
Minimum magnitude displayed is 2.5.

Coastal Water Temperatures

Place Temperature
No Stations Reporting

Nearby Weather Stations